Terminal Aerodrome Forecast
Issued by NWS Northern Indiana

Home | Current Version | Previous Version | Text Only | Print | Product List | Glossary Off
Versions: 1 2 3 4 5 6 7 8 9 10 11 12 13

620
FTUS43 KIWX 240143 AAA
TAFFWA
TAF AMD
KFWA 240143Z 2402/2424 12012G18KT 6SM BR BKN035
      TEMPO 2402/2404 3SM -RA BR BKN025
     FM240400 11009KT P6SM VCSH OVC020
     FM240600 10008KT P6SM OVC015
     FM241300 08008KT P6SM OVC008=

USA.gov is the U.S. government's official web portal to all federal, state and local government web resources and services.